Time;durP1;ratioP1;P1;durP2;ratioP2;P2;SDS_P1;SDS_P2;PMS_P1;PMS_P2;Temp;Humidity;BMP_temperature;BMP_pressure;BME280_temperature;BME280_humidity;BME280_pressure;Samples;Min_cycle;Max_cycle;Signal;HPM_P1;HPM_P2
2022/08/09 00:00:21;;;;;;;8.88;5.90;;;;;;;;;;5098458;28;20051;-74
2022/08/09 00:02:47;;;;;;;12.95;6.40;;;;;;;;;;5108514;28;20054;-74
2022/08/09 00:05:13;;;;;;;14.73;6.53;;;;;;;;;;5104847;28;20032;-74
2022/08/09 00:07:42;;;;;;;11.18;6.07;;;;;;;;;;5107727;28;20450;-74
2022/08/09 00:10:08;;;;;;;9.40;6.22;;;;;;;;;;5095465;28;20044;-74
2022/08/09 00:12:34;;;;;;;9.98;6.10;;;;;;;;;;5104248;28;20374;-74
2022/08/09 00:15:00;;;;;;;10.50;6.05;;;;;;;;;;5108406;28;20070;-74
2022/08/09 00:17:26;;;;;;;9.73;5.70;;;;;;;;;;5069444;28;20044;-75
2022/08/09 00:19:52;;;;;;;10.60;5.90;;;;;;;;;;5104366;28;20093;-75
2022/08/09 00:22:18;;;;;;;7.25;5.60;;;;;;;;;;5111971;28;20073;-74
2022/08/09 00:24:44;;;;;;;12.02;6.72;;;;;;;;;;5112821;28;20032;-74
2022/08/09 00:27:10;;;;;;;12.10;5.40;;;;;;;;;;5090477;28;20047;-75
2022/08/09 00:29:36;;;;;;;8.88;5.57;;;;;;;;;;5090294;28;20055;-75
2022/08/09 00:32:02;;;;;;;10.63;5.88;;;;;;;;;;5115992;28;20036;-74
2022/08/09 00:34:28;;;;;;;9.50;6.15;;;;;;;;;;5113440;28;20100;-75
2022/08/09 00:36:54;;;;;;;9.30;6.00;;;;;;;;;;5090138;28;20134;-74
2022/08/09 00:39:21;;;;;;;13.27;7.07;;;;;;;;;;5104465;28;20628;-75
2022/08/09 00:41:48;;;;;;;10.65;6.40;;;;;;;;;;5103924;28;20047;-74
2022/08/09 00:44:14;;;;;;;8.40;6.53;;;;;;;;;;5106411;28;20069;-74
2022/08/09 00:46:42;;;;;;;9.93;6.68;;;;;;;;;;5097145;28;20128;-73
2022/08/09 00:49:08;;;;;;;10.23;6.97;;;;;;;;;;5105451;28;20047;-75
2022/08/09 00:51:34;;;;;;;10.00;6.80;;;;;;;;;;5111330;28;20043;-75
2022/08/09 00:54:00;;;;;;;9.55;6.50;;;;;;;;;;5112381;28;20050;-76
2022/08/09 00:56:29;;;;;;;9.05;5.97;;;;;;;;;;5104007;28;20048;-74
2022/08/09 00:58:55;;;;;;;9.38;5.97;;;;;;;;;;5098387;28;20062;-74
2022/08/09 01:01:23;;;;;;;8.52;5.72;;;;;;;;;;5104935;28;20088;-74
2022/08/09 01:04:08;;;;;;;8.00;4.55;;;;;;;;;;5101294;28;20044;-74
2022/08/09 01:06:47;;;;;;;10.55;4.68;;;;;;;;;;5106723;28;20053;-74
2022/08/09 01:09:23;;;;;;;8.45;5.47;;;;;;;;;;5102927;28;20040;-74
2022/08/09 01:11:52;;;;;;;8.55;5.50;;;;;;;;;;5110375;28;20043;-75
2022/08/09 01:14:18;;;;;;;8.15;5.25;;;;;;;;;;5099199;28;20127;-76
2022/08/09 01:16:45;;;;;;;9.50;6.07;;;;;;;;;;5110165;28;20089;-74
2022/08/09 01:19:30;;;;;;;13.27;6.75;;;;;;;;;;5100862;28;20382;-73
2022/08/09 01:22:15;;;;;;;8.85;5.88;;;;;;;;;;5063179;28;20048;-74
2022/08/09 01:24:44;;;;;;;10.55;6.45;;;;;;;;;;5100606;28;20043;-75
2022/08/09 01:27:12;;;;;;;9.52;6.20;;;;;;;;;;5103462;28;20078;-74
2022/08/09 01:29:46;;;;;;;8.77;5.05;;;;;;;;;;5105086;28;20126;-75
2022/08/09 01:32:12;;;;;;;8.57;5.15;;;;;;;;;;5100970;28;20524;-74
2022/08/09 01:34:41;;;;;;;7.43;4.30;;;;;;;;;;5102934;28;20446;-75
2022/08/09 01:37:08;;;;;;;7.05;4.57;;;;;;;;;;5107700;28;20050;-74
2022/08/09 01:39:35;;;;;;;9.52;4.05;;;;;;;;;;5081183;28;20044;-75
2022/08/09 01:42:03;;;;;;;6.90;3.97;;;;;;;;;;5105797;28;20040;-75
2022/08/09 01:44:29;;;;;;;5.47;3.90;;;;;;;;;;5104058;28;20044;-76
2022/08/09 01:46:57;;;;;;;6.43;4.30;;;;;;;;;;5103455;28;20036;-74
2022/08/09 01:49:24;;;;;;;5.53;3.72;;;;;;;;;;5111570;28;20040;-75
2022/08/09 01:52:02;;;;;;;7.95;4.47;;;;;;;;;;5113994;28;20096;-76
2022/08/09 01:54:42;;;;;;;6.78;4.53;;;;;;;;;;5106663;28;20062;-75
2022/08/09 01:57:19;;;;;;;8.35;4.53;;;;;;;;;;5116139;28;20040;-74
2022/08/09 01:59:47;;;;;;;6.85;4.45;;;;;;;;;;5109982;28;20039;-75
2022/08/09 02:02:14;;;;;;;8.25;4.85;;;;;;;;;;5116699;28;20044;-73
2022/08/09 02:04:41;;;;;;;8.57;6.20;;;;;;;;;;5119134;28;20061;-76
2022/08/09 02:07:10;;;;;;;9.55;7.10;;;;;;;;;;5114497;28;20538;-74
2022/08/09 02:09:41;;;;;;;9.50;6.00;;;;;;;;;;5112124;28;20085;-75
2022/08/09 02:12:08;;;;;;;9.25;6.22;;;;;;;;;;5105070;28;20067;-74
2022/08/09 02:14:35;;;;;;;7.18;5.55;;;;;;;;;;5084653;28;20071;-75
2022/08/09 02:17:02;;;;;;;6.10;5.10;;;;;;;;;;5105547;28;20481;-74
2022/08/09 02:19:28;;;;;;;7.43;4.43;;;;;;;;;;5110569;28;20050;-75
2022/08/09 02:21:56;;;;;;;6.35;4.22;;;;;;;;;;5112122;28;20040;-75
2022/08/09 02:24:23;;;;;;;7.05;4.45;;;;;;;;;;5107905;28;20039;-75
2022/08/09 02:26:51;;;;;;;5.68;4.38;;;;;;;;;;5117399;28;20032;-74
2022/08/09 02:29:21;;;;;;;7.50;4.20;;;;;;;;;;5109657;28;20139;-75
2022/08/09 02:31:48;;;;;;;7.93;4.68;;;;;;;;;;5111839;28;20122;-75
2022/08/09 02:34:15;;;;;;;8.63;4.30;;;;;;;;;;5111170;28;20131;-75
2022/08/09 02:36:42;;;;;;;7.80;4.90;;;;;;;;;;5102148;28;20047;-75
2022/08/09 02:39:12;;;;;;;7.97;5.03;;;;;;;;;;5101413;28;20048;-75
2022/08/09 02:41:43;;;;;;;7.45;5.70;;;;;;;;;;5117448;28;20036;-75
2022/08/09 02:44:10;;;;;;;9.23;6.43;;;;;;;;;;5082281;28;20154;-74
2022/08/09 02:46:38;;;;;;;8.52;6.03;;;;;;;;;;5111403;28;20048;-75
2022/08/09 02:49:06;;;;;;;9.00;6.13;;;;;;;;;;5109290;28;20485;-74
2022/08/09 02:51:35;;;;;;;7.80;5.85;;;;;;;;;;5108105;28;20043;-75
2022/08/09 02:54:02;;;;;;;9.00;6.57;;;;;;;;;;5116462;28;20115;-74
2022/08/09 02:56:30;;;;;;;7.60;5.85;;;;;;;;;;5106307;28;20047;-75
2022/08/09 02:58:56;;;;;;;8.52;6.00;;;;;;;;;;5116030;28;20077;-75
2022/08/09 03:01:22;;;;;;;7.20;5.95;;;;;;;;;;5106962;28;20095;-74
2022/08/09 03:03:49;;;;;;;9.27;7.03;;;;;;;;;;5111296;28;20067;-74
2022/08/09 03:06:16;;;;;;;8.00;6.38;;;;;;;;;;5112690;28;20036;-74
2022/08/09 03:08:43;;;;;;;9.55;6.68;;;;;;;;;;5116626;28;20039;-75
2022/08/09 03:11:10;;;;;;;10.43;6.95;;;;;;;;;;5115299;28;20064;-75
2022/08/09 03:13:36;;;;;;;8.13;6.55;;;;;;;;;;5076095;28;20047;-75
2022/08/09 03:16:03;;;;;;;7.47;5.55;;;;;;;;;;5100871;28;20078;-74
2022/08/09 03:18:30;;;;;;;14.07;5.65;;;;;;;;;;5112772;28;20119;-74
2022/08/09 03:20:56;;;;;;;8.93;6.07;;;;;;;;;;5109357;28;20047;-75
2022/08/09 03:23:22;;;;;;;8.60;5.68;;;;;;;;;;5110617;28;20040;-74
2022/08/09 03:25:48;;;;;;;9.13;6.35;;;;;;;;;;5110245;28;20485;-75
2022/08/09 03:28:15;;;;;;;10.30;6.80;;;;;;;;;;5099855;28;20043;-75
2022/08/09 03:30:41;;;;;;;9.35;6.90;;;;;;;;;;5106891;28;20409;-75
2022/08/09 03:33:08;;;;;;;10.73;7.53;;;;;;;;;;5082372;28;20474;-76
2022/08/09 03:35:34;;;;;;;10.02;7.53;;;;;;;;;;5110653;28;20036;-74
2022/08/09 03:38:01;;;;;;;15.73;10.38;;;;;;;;;;5110880;28;20039;-74
2022/08/09 03:40:27;;;;;;;14.82;9.85;;;;;;;;;;5106956;28;20055;-75
2022/08/09 03:42:53;;;;;;;18.33;12.18;;;;;;;;;;5106581;28;20044;-75
2022/08/09 03:45:19;;;;;;;15.48;10.50;;;;;;;;;;5106938;28;20039;-75
2022/08/09 03:47:45;;;;;;;14.23;9.93;;;;;;;;;;5107209;28;20040;-75
2022/08/09 03:50:11;;;;;;;13.60;10.25;;;;;;;;;;5101614;28;20047;-76
2022/08/09 03:52:41;;;;;;;15.52;11.18;;;;;;;;;;5102250;28;20070;-76
2022/08/09 03:55:08;;;;;;;13.38;10.13;;;;;;;;;;5103319;28;20077;-74
2022/08/09 03:57:34;;;;;;;22.10;11.93;;;;;;;;;;5116025;28;20505;-75
2022/08/09 03:59:59;;;;;;;16.48;11.27;;;;;;;;;;5103701;28;20043;-75
2022/08/09 04:02:26;;;;;;;14.88;10.18;;;;;;;;;;5099917;28;20036;-74
2022/08/09 04:04:53;;;;;;;14.88;10.25;;;;;;;;;;5097500;28;20036;-75
2022/08/09 04:07:19;;;;;;;15.10;9.00;;;;;;;;;;5105382;28;20047;-75
2022/08/09 04:09:45;;;;;;;10.63;8.30;;;;;;;;;;5101848;28;20128;-75
2022/08/09 04:12:11;;;;;;;12.18;8.57;;;;;;;;;;5114847;28;20070;-74
2022/08/09 04:14:38;;;;;;;42.28;10.52;;;;;;;;;;5104260;28;20485;-75
2022/08/09 04:17:04;;;;;;;16.67;9.43;;;;;;;;;;5110137;28;20052;-75
2022/08/09 04:19:30;;;;;;;10.93;7.60;;;;;;;;;;5086957;28;20166;-74
2022/08/09 04:21:56;;;;;;;11.18;7.78;;;;;;;;;;5097626;28;20493;-75
2022/08/09 04:24:24;;;;;;;9.82;7.55;;;;;;;;;;5101456;28;20072;-74
2022/08/09 04:26:50;;;;;;;8.27;6.80;;;;;;;;;;5108010;28;20062;-76
2022/08/09 04:29:16;;;;;;;8.63;7.05;;;;;;;;;;5102090;28;20055;-75
2022/08/09 04:31:42;;;;;;;11.25;7.05;;;;;;;;;;5106413;28;20108;-74
2022/08/09 04:34:08;;;;;;;9.25;6.63;;;;;;;;;;5106404;28;20051;-75
2022/08/09 04:36:34;;;;;;;15.88;6.53;;;;;;;;;;5102684;28;20114;-74
2022/08/09 04:39:02;;;;;;;8.27;6.35;;;;;;;;;;5099216;28;20040;-74
2022/08/09 04:41:28;;;;;;;9.95;6.40;;;;;;;;;;5102483;28;20040;-75
2022/08/09 04:43:54;;;;;;;8.55;5.93;;;;;;;;;;5116729;28;20044;-74
2022/08/09 04:46:21;;;;;;;7.85;6.45;;;;;;;;;;5106236;28;20445;-75
2022/08/09 04:48:47;;;;;;;8.60;6.43;;;;;;;;;;5103268;28;20072;-74
2022/08/09 04:51:13;;;;;;;9.38;6.10;;;;;;;;;;5100024;28;20048;-74
2022/08/09 04:53:39;;;;;;;8.90;6.72;;;;;;;;;;5100200;28;20075;-74
2022/08/09 04:56:05;;;;;;;7.88;6.07;;;;;;;;;;5100048;28;20052;-75
2022/08/09 04:58:32;;;;;;;7.63;5.97;;;;;;;;;;5108050;28;20103;-75
2022/08/09 05:00:58;;;;;;;9.25;6.68;;;;;;;;;;5108066;28;20032;-75
2022/08/09 05:03:24;;;;;;;11.13;6.45;;;;;;;;;;5114426;28;20478;-73
2022/08/09 05:05:51;;;;;;;9.82;7.22;;;;;;;;;;5108401;28;20036;-75
2022/08/09 05:08:17;;;;;;;11.02;8.23;;;;;;;;;;5083356;28;20055;-75
2022/08/09 05:10:43;;;;;;;10.50;8.18;;;;;;;;;;5112774;28;20397;-75
2022/08/09 05:13:10;;;;;;;11.02;8.57;;;;;;;;;;5120101;28;20516;-74
2022/08/09 05:15:36;;;;;;;14.00;9.63;;;;;;;;;;5103575;28;20401;-74
2022/08/09 05:18:02;;;;;;;13.80;9.30;;;;;;;;;;5106403;28;20055;-74
2022/08/09 05:20:28;;;;;;;14.00;9.18;;;;;;;;;;5106062;28;20074;-75
2022/08/09 05:22:54;;;;;;;12.15;8.65;;;;;;;;;;5102738;28;20036;-74
2022/08/09 05:25:21;;;;;;;13.18;9.43;;;;;;;;;;5106896;28;20035;-74
2022/08/09 05:27:47;;;;;;;11.73;9.27;;;;;;;;;;5075169;28;20087;-74
2022/08/09 05:30:14;;;;;;;11.55;8.20;;;;;;;;;;5106600;28;20410;-74
2022/08/09 05:32:40;;;;;;;12.55;8.82;;;;;;;;;;5105042;28;20047;-75
2022/08/09 05:35:06;;;;;;;10.00;7.57;;;;;;;;;;5102553;28;20101;-74
2022/08/09 05:37:32;;;;;;;10.13;7.97;;;;;;;;;;5099994;28;20044;-73
2022/08/09 05:39:58;;;;;;;9.20;7.18;;;;;;;;;;5070814;28;20497;-75
2022/08/09 05:42:24;;;;;;;8.75;6.25;;;;;;;;;;5099701;28;20047;-75
2022/08/09 05:44:51;;;;;;;8.40;6.38;;;;;;;;;;5072585;28;20072;-75
2022/08/09 05:47:17;;;;;;;9.63;6.10;;;;;;;;;;5101392;28;20079;-75
2022/08/09 05:49:43;;;;;;;7.88;5.88;;;;;;;;;;5106691;28;20551;-74
2022/08/09 05:52:09;;;;;;;8.55;5.95;;;;;;;;;;5108878;28;20039;-75
2022/08/09 05:54:36;;;;;;;8.43;5.88;;;;;;;;;;5070949;28;20062;-76
2022/08/09 05:57:02;;;;;;;7.95;5.57;;;;;;;;;;5080862;28;20111;-75
2022/08/09 05:59:28;;;;;;;8.60;5.40;;;;;;;;;;5086243;28;20040;-75
2022/08/09 06:01:54;;;;;;;10.15;5.85;;;;;;;;;;5107864;28;20044;-75
2022/08/09 06:04:20;;;;;;;7.88;5.22;;;;;;;;;;5099631;28;20393;-76
2022/08/09 06:06:46;;;;;;;7.25;5.65;;;;;;;;;;5101917;28;20081;-76
2022/08/09 06:09:12;;;;;;;8.90;4.90;;;;;;;;;;5105009;28;20181;-75
2022/08/09 06:11:38;;;;;;;8.73;4.95;;;;;;;;;;5087312;28;20465;-75
2022/08/09 06:14:04;;;;;;;6.13;4.60;;;;;;;;;;5113125;28;20079;-76
2022/08/09 06:16:30;;;;;;;6.30;4.55;;;;;;;;;;5099207;28;20127;-75
2022/08/09 06:18:56;;;;;;;8.20;4.68;;;;;;;;;;5098738;28;20055;-75
2022/08/09 06:21:22;;;;;;;8.55;4.45;;;;;;;;;;5098617;28;20043;-75
2022/08/09 06:23:48;;;;;;;6.18;3.92;;;;;;;;;;5102918;28;20051;-75
2022/08/09 06:26:14;;;;;;;8.00;4.60;;;;;;;;;;5081619;28;20043;-76
2022/08/09 06:28:40;;;;;;;7.10;4.45;;;;;;;;;;5092453;28;20047;-76
2022/08/09 06:31:06;;;;;;;8.10;4.30;;;;;;;;;;5098348;28;20038;-75
2022/08/09 06:33:32;;;;;;;6.72;3.92;;;;;;;;;;5098004;28;20048;-77
2022/08/09 06:35:59;;;;;;;6.45;3.50;;;;;;;;;;5108015;28;20050;-76
2022/08/09 06:38:25;;;;;;;6.10;3.70;;;;;;;;;;5112162;28;20085;-76
2022/08/09 06:40:51;;;;;;;7.15;3.47;;;;;;;;;;5098926;28;20047;-75
2022/08/09 06:43:17;;;;;;;8.27;3.97;;;;;;;;;;5104077;28;20040;-75
2022/08/09 06:45:43;;;;;;;8.18;3.85;;;;;;;;;;5096920;28;20050;-77
2022/08/09 06:48:11;;;;;;;6.93;3.85;;;;;;;;;;5102349;28;20043;-76
2022/08/09 06:50:37;;;;;;;6.20;3.47;;;;;;;;;;5101474;28;20039;-76
2022/08/09 06:53:03;;;;;;;6.95;3.33;;;;;;;;;;5109644;28;20032;-76
2022/08/09 06:55:31;;;;;;;7.28;3.22;;;;;;;;;;5075812;28;20441;-76
2022/08/09 06:57:57;;;;;;;6.55;3.60;;;;;;;;;;5076326;28;20047;-76
2022/08/09 07:00:24;;;;;;;6.07;3.40;;;;;;;;;;5097772;28;20039;-77
2022/08/09 07:02:50;;;;;;;6.90;3.38;;;;;;;;;;5093310;28;20120;-76
2022/08/09 07:05:16;;;;;;;6.72;3.72;;;;;;;;;;5076812;28;20485;-75
2022/08/09 07:07:43;;;;;;;6.97;3.22;;;;;;;;;;5098879;28;20039;-75
2022/08/09 07:10:09;;;;;;;7.78;3.25;;;;;;;;;;5099949;28;20126;-76
2022/08/09 07:12:36;;;;;;;8.45;3.33;;;;;;;;;;5083542;28;20035;-74
2022/08/09 07:15:02;;;;;;;6.00;2.80;;;;;;;;;;5099465;28;20070;-75
2022/08/09 07:17:28;;;;;;;6.20;2.78;;;;;;;;;;5113633;28;20477;-75
2022/08/09 07:19:55;;;;;;;7.95;2.97;;;;;;;;;;5101402;28;20096;-75
2022/08/09 07:22:21;;;;;;;8.00;3.05;;;;;;;;;;5107858;28;20089;-75
2022/08/09 07:24:47;;;;;;;6.05;2.85;;;;;;;;;;5103235;28;20393;-76
2022/08/09 07:27:13;;;;;;;6.40;3.13;;;;;;;;;;5097571;28;20512;-75
2022/08/09 07:29:40;;;;;;;6.18;3.17;;;;;;;;;;5100964;28;20382;-75
2022/08/09 07:32:06;;;;;;;6.13;2.80;;;;;;;;;;5078718;28;20047;-76
2022/08/09 07:34:33;;;;;;;6.63;2.78;;;;;;;;;;5105501;28;20040;-76
2022/08/09 07:36:59;;;;;;;6.25;2.83;;;;;;;;;;5080267;28;20047;-77
2022/08/09 07:39:25;;;;;;;7.13;3.47;;;;;;;;;;5105664;28;20066;-76
2022/08/09 07:41:51;;;;;;;5.88;3.22;;;;;;;;;;5104842;28;20048;-75
2022/08/09 07:44:17;;;;;;;6.40;3.28;;;;;;;;;;5105947;28;20089;-76
2022/08/09 07:46:43;;;;;;;6.28;2.78;;;;;;;;;;5100142;28;20401;-76
2022/08/09 07:49:09;;;;;;;5.95;2.70;;;;;;;;;;5104575;28;20118;-76
2022/08/09 07:51:36;;;;;;;4.43;2.22;;;;;;;;;;5099537;28;20044;-76
2022/08/09 07:54:02;;;;;;;5.78;2.10;;;;;;;;;;5096288;28;20047;-75
2022/08/09 07:56:28;;;;;;;5.93;1.85;;;;;;;;;;5111244;28;20412;-74
2022/08/09 07:58:54;;;;;;;6.68;2.20;;;;;;;;;;5118703;28;20043;-77
2022/08/09 08:01:20;;;;;;;6.57;2.17;;;;;;;;;;5104673;28;20040;-76
2022/08/09 08:03:46;;;;;;;4.40;1.73;;;;;;;;;;5112848;28;20031;-75
2022/08/09 08:06:12;;;;;;;3.95;1.08;;;;;;;;;;5085856;28;20502;-74
2022/08/09 08:08:38;;;;;;;4.88;1.25;;;;;;;;;;5110820;28;20051;-76
2022/08/09 08:11:04;;;;;;;4.40;1.10;;;;;;;;;;5109454;28;20032;-75
2022/08/09 08:13:30;;;;;;;4.50;1.13;;;;;;;;;;5116169;28;20466;-76
2022/08/09 08:15:56;;;;;;;4.10;1.23;;;;;;;;;;5129314;27;20031;-75
2022/08/09 08:18:22;;;;;;;3.00;1.02;;;;;;;;;;5116864;28;20069;-75
2022/08/09 08:20:48;;;;;;;4.93;1.30;;;;;;;;;;5092215;28;20029;-75
2022/08/09 08:23:16;;;;;;;3.97;1.10;;;;;;;;;;5117494;27;20028;-73
2022/08/09 08:25:42;;;;;;;6.40;1.40;;;;;;;;;;5120822;27;20057;-74
2022/08/09 08:28:08;;;;;;;3.42;1.05;;;;;;;;;;5112537;28;20040;-75
2022/08/09 08:30:34;;;;;;;4.50;1.20;;;;;;;;;;5113944;28;20056;-75
2022/08/09 08:33:00;;;;;;;4.53;1.33;;;;;;;;;;5105288;28;20083;-74
2022/08/09 08:35:26;;;;;;;4.57;1.20;;;;;;;;;;5109355;28;20048;-75
2022/08/09 08:37:52;;;;;;;3.55;1.10;;;;;;;;;;5116350;28;20108;-76
2022/08/09 08:40:18;;;;;;;2.70;1.00;;;;;;;;;;5119832;28;20076;-74
2022/08/09 08:42:44;;;;;;;3.08;1.20;;;;;;;;;;5111526;28;20092;-74
2022/08/09 08:45:12;;;;;;;4.18;1.38;;;;;;;;;;5129472;27;20051;-73
2022/08/09 08:47:41;;;;;;;4.10;1.52;;;;;;;;;;5110318;28;20062;-74
2022/08/09 08:50:07;;;;;;;5.03;1.30;;;;;;;;;;5115663;28;20024;-73
2022/08/09 08:52:33;;;;;;;1.85;0.98;;;;;;;;;;5111633;28;20066;-75
2022/08/09 08:55:00;;;;;;;3.75;1.00;;;;;;;;;;5108458;28;20067;-73
2022/08/09 08:57:26;;;;;;;2.05;0.77;;;;;;;;;;5110012;28;20067;-75
2022/08/09 08:59:53;;;;;;;4.45;1.10;;;;;;;;;;5107462;28;20043;-75
2022/08/09 09:02:23;;;;;;;3.67;1.08;;;;;;;;;;5120653;28;20477;-75
2022/08/09 09:04:52;;;;;;;4.00;1.13;;;;;;;;;;5111807;28;20056;-75
2022/08/09 09:07:19;;;;;;;3.55;1.60;;;;;;;;;;5113279;28;20044;-74
2022/08/09 09:09:46;;;;;;;5.00;1.20;;;;;;;;;;5110460;28;20032;-74
2022/08/09 09:12:14;;;;;;;2.72;0.85;;;;;;;;;;5133652;27;20024;-74
2022/08/09 09:14:41;;;;;;;4.03;1.30;;;;;;;;;;5130735;28;20026;-75
2022/08/09 09:17:07;;;;;;;2.40;0.85;;;;;;;;;;5122442;28;20069;-74
2022/08/09 09:19:34;;;;;;;2.63;0.93;;;;;;;;;;5126548;28;20044;-76
2022/08/09 09:22:03;;;;;;;3.55;0.85;;;;;;;;;;5124809;28;20048;-74
2022/08/09 09:24:32;;;;;;;3.38;1.05;;;;;;;;;;5113320;28;20042;-76
2022/08/09 09:26:58;;;;;;;1.58;0.70;;;;;;;;;;5121870;27;20044;-74
2022/08/09 09:29:28;;;;;;;1.92;0.75;;;;;;;;;;5124566;28;20036;-75
2022/08/09 09:31:54;;;;;;;4.60;0.87;;;;;;;;;;5121309;28;20027;-75
2022/08/09 09:34:20;;;;;;;2.88;0.80;;;;;;;;;;5117270;28;20059;-75
2022/08/09 09:36:46;;;;;;;3.38;0.93;;;;;;;;;;5122727;28;20062;-73
2022/08/09 09:39:12;;;;;;;3.30;0.93;;;;;;;;;;5106219;28;20038;-74
2022/08/09 09:41:38;;;;;;;3.17;0.82;;;;;;;;;;5112543;28;20032;-73
2022/08/09 09:44:05;;;;;;;1.98;0.77;;;;;;;;;;5108349;28;20047;-75
2022/08/09 09:46:36;;;;;;;2.30;0.88;;;;;;;;;;5120259;28;20054;-75
2022/08/09 09:49:07;;;;;;;1.50;0.68;;;;;;;;;;5123601;27;20044;-76
2022/08/09 09:51:34;;;;;;;1.65;0.65;;;;;;;;;;5120632;28;20035;-76
2022/08/09 09:54:10;;;;;;;2.90;0.80;;;;;;;;;;5128389;27;20047;-76
2022/08/09 09:56:39;;;;;;;1.92;0.80;;;;;;;;;;5105711;28;20036;-76
2022/08/09 09:59:06;;;;;;;1.60;0.80;;;;;;;;;;5109446;28;20576;-73
2022/08/09 10:01:32;;;;;;;3.50;0.63;;;;;;;;;;5111799;28;20044;-73
2022/08/09 10:03:59;;;;;;;3.15;0.73;;;;;;;;;;5127307;27;20047;-76
2022/08/09 10:06:25;;;;;;;5.28;0.85;;;;;;;;;;5124157;28;20051;-75
2022/08/09 10:08:58;;;;;;;2.63;0.80;;;;;;;;;;5130148;27;20036;-74
2022/08/09 10:11:29;;;;;;;2.33;0.75;;;;;;;;;;5120620;27;20020;-74
2022/08/09 10:13:55;;;;;;;3.53;0.95;;;;;;;;;;5120092;27;20035;-74
2022/08/09 10:16:35;;;;;;;2.13;0.80;;;;;;;;;;5119307;28;20031;-75
2022/08/09 10:19:02;;;;;;;2.88;0.90;;;;;;;;;;5122028;27;20072;-74
2022/08/09 10:21:28;;;;;;;2.75;0.90;;;;;;;;;;5118168;28;20104;-73
2022/08/09 10:23:55;;;;;;;1.48;0.85;;;;;;;;;;5122644;27;20039;-75
2022/08/09 10:26:22;;;;;;;4.40;0.82;;;;;;;;;;5134031;27;20082;-74
2022/08/09 10:28:48;;;;;;;6.35;0.82;;;;;;;;;;5114489;27;20048;-75
2022/08/09 10:31:15;;;;;;;4.38;1.00;;;;;;;;;;5114745;28;20092;-75
2022/08/09 10:33:41;;;;;;;3.80;0.90;;;;;;;;;;5134059;27;20029;-75
2022/08/09 10:36:09;;;;;;;2.33;0.70;;;;;;;;;;5122343;27;20560;-73
2022/08/09 10:38:36;;;;;;;2.25;0.77;;;;;;;;;;5102237;28;20058;-73
2022/08/09 10:41:02;;;;;;;3.65;0.90;;;;;;;;;;5116616;28;20032;-75
2022/08/09 10:43:28;;;;;;;2.58;0.70;;;;;;;;;;5107656;28;20051;-75
2022/08/09 10:45:54;;;;;;;2.83;0.98;;;;;;;;;;5121661;27;20043;-73
2022/08/09 10:48:25;;;;;;;2.85;0.80;;;;;;;;;;5123205;28;20095;-74
2022/08/09 10:51:13;;;;;;;3.85;0.90;;;;;;;;;;5120321;28;20052;-75
2022/08/09 10:53:50;;;;;;;1.42;0.75;;;;;;;;;;5114437;28;20025;-74
2022/08/09 10:56:26;;;;;;;1.85;0.80;;;;;;;;;;5111691;28;20425;-76
2022/08/09 10:58:53;;;;;;;1.95;0.75;;;;;;;;;;5108626;28;20074;-73
2022/08/09 11:01:32;;;;;;;3.22;0.88;;;;;;;;;;5117869;27;20031;-74
2022/08/09 11:04:12;;;;;;;1.80;0.75;;;;;;;;;;5128886;27;20066;-81
2022/08/09 11:06:40;;;;;;;2.28;0.85;;;;;;;;;;5109676;28;20144;-76
2022/08/09 11:09:07;;;;;;;2.53;0.80;;;;;;;;;;5115248;27;20031;-75
2022/08/09 11:11:52;;;;;;;1.75;0.60;;;;;;;;;;5108223;28;20043;-74
2022/08/09 11:14:28;;;;;;;3.63;0.85;;;;;;;;;;5102734;28;20051;-73
2022/08/09 11:16:54;;;;;;;5.07;0.90;;;;;;;;;;5122895;27;20051;-73
2022/08/09 11:19:40;;;;;;;2.08;0.70;;;;;;;;;;5115183;28;20048;-73
2022/08/09 11:22:07;;;;;;;1.60;0.60;;;;;;;;;;5115923;28;20085;-74
2022/08/09 11:24:53;;;;;;;3.70;0.63;;;;;;;;;;5102972;28;20040;-72
2022/08/09 11:27:33;;;;;;;5.38;0.80;;;;;;;;;;5106224;28;20497;-73
2022/08/09 11:29:59;;;;;;;6.47;0.98;;;;;;;;;;5110948;28;20055;-76
2022/08/09 11:32:44;;;;;;;8.48;0.90;;;;;;;;;;5102971;28;20044;-74
2022/08/09 11:35:20;;;;;;;10.65;1.20;;;;;;;;;;5090379;28;20043;-73
2022/08/09 11:37:47;;;;;;;4.82;0.90;;;;;;;;;;5111990;28;20118;-74
2022/08/09 11:40:15;;;;;;;4.47;1.08;;;;;;;;;;5116313;28;20044;-73
2022/08/09 11:42:45;;;;;;;3.95;1.08;;;;;;;;;;5107503;28;20044;-74
2022/08/09 11:45:24;;;;;;;3.05;0.90;;;;;;;;;;5104852;28;20044;-74
2022/08/09 11:47:51;;;;;;;3.00;1.02;;;;;;;;;;5105549;28;20044;-75
2022/08/09 11:50:17;;;;;;;1.85;0.70;;;;;;;;;;5112916;28;20118;-76
2022/08/09 11:52:58;;;;;;;4.43;1.00;;;;;;;;;;5109633;28;20052;-74
2022/08/09 11:55:24;;;;;;;;;;;;;;;;;;5115090;28;20048;-74
2022/08/09 11:57:50;;;;;;;2.45;0.70;;;;;;;;;;5116936;28;19911;-72
2022/08/09 12:00:16;;;;;;;2.35;0.80;;;;;;;;;;5082858;28;20047;-73
2022/08/09 12:02:42;;;;;;;2.55;0.80;;;;;;;;;;5109571;28;20052;-72
2022/08/09 12:05:08;;;;;;;3.15;0.90;;;;;;;;;;5112740;28;20057;-73
2022/08/09 12:07:35;;;;;;;2.28;0.80;;;;;;;;;;5103610;28;20048;-72
2022/08/09 12:10:01;;;;;;;3.20;0.80;;;;;;;;;;5120699;28;20074;-73
2022/08/09 12:12:27;;;;;;;1.63;0.57;;;;;;;;;;5120664;28;20089;-74
2022/08/09 12:14:53;;;;;;;2.08;0.73;;;;;;;;;;5087380;28;20044;-73
2022/08/09 12:17:19;;;;;;;1.52;0.70;;;;;;;;;;5118883;28;20055;-74
2022/08/09 12:19:45;;;;;;;3.42;0.68;;;;;;;;;;5108621;28;20068;-72
2022/08/09 12:22:11;;;;;;;3.33;0.77;;;;;;;;;;5098637;28;20043;-73
2022/08/09 12:24:38;;;;;;;3.20;0.70;;;;;;;;;;5109324;28;20099;-73
2022/08/09 12:27:04;;;;;;;3.15;0.98;;;;;;;;;;5132611;27;20051;-74
2022/08/09 12:29:31;;;;;;;2.92;0.65;;;;;;;;;;5121435;27;20039;-73
2022/08/09 12:32:15;;;;;;;1.55;0.70;;;;;;;;;;5095857;28;20040;-72
2022/08/09 12:34:42;;;;;;;3.85;0.70;;;;;;;;;;5086823;28;20051;-73
2022/08/09 12:37:10;;;;;;;2.90;0.70;;;;;;;;;;5103728;28;20043;-72
2022/08/09 12:39:36;;;;;;;2.45;0.82;;;;;;;;;;5108266;28;20050;-74
2022/08/09 12:42:08;;;;;;;1.80;0.80;;;;;;;;;;5113572;28;20048;-73
2022/08/09 12:44:36;;;;;;;4.57;0.80;;;;;;;;;;5114412;28;20055;-72
2022/08/09 12:47:03;;;;;;;2.20;0.80;;;;;;;;;;5102409;28;20059;-73
2022/08/09 12:49:29;;;;;;;2.40;0.70;;;;;;;;;;5104638;28;20072;-73
2022/08/09 12:51:56;;;;;;;3.45;0.68;;;;;;;;;;5103289;28;20058;-73
2022/08/09 12:54:22;;;;;;;2.85;0.80;;;;;;;;;;5105527;28;20383;-72
2022/08/09 12:56:48;;;;;;;2.45;0.70;;;;;;;;;;5101793;28;20052;-72
2022/08/09 12:59:14;;;;;;;1.90;0.68;;;;;;;;;;5100866;28;20031;-73
2022/08/09 13:01:42;;;;;;;3.38;0.75;;;;;;;;;;5102303;28;20103;-73
2022/08/09 13:04:10;;;;;;;3.30;0.80;;;;;;;;;;5109254;28;21240;-73
2022/08/09 13:06:39;;;;;;;1.83;0.52;;;;;;;;;;5103796;28;20048;-73
2022/08/09 13:09:08;;;;;;;2.50;0.88;;;;;;;;;;5113314;28;20097;-73
2022/08/09 13:11:35;;;;;;;1.48;0.70;;;;;;;;;;5112128;28;20044;-73
2022/08/09 13:14:03;;;;;;;3.08;0.88;;;;;;;;;;5095422;28;20040;-74
2022/08/09 13:16:47;;;;;;;2.25;0.70;;;;;;;;;;5107354;28;20040;-74
2022/08/09 13:19:30;;;;;;;2.42;0.70;;;;;;;;;;5097405;28;20055;-74
2022/08/09 13:22:15;;;;;;;1.85;0.70;;;;;;;;;;5118172;28;20520;-75
2022/08/09 13:24:42;;;;;;;3.00;0.70;;;;;;;;;;5111547;28;20055;-71
2022/08/09 13:27:26;;;;;;;1.83;0.60;;;;;;;;;;5107329;28;20035;-75
2022/08/09 13:29:57;;;;;;;2.33;0.70;;;;;;;;;;5098660;28;20059;-75
2022/08/09 13:32:23;;;;;;;2.33;0.70;;;;;;;;;;5107699;28;20046;-74
2022/08/09 13:34:50;;;;;;;4.70;0.85;;;;;;;;;;5109350;28;20048;-74
2022/08/09 13:37:16;;;;;;;2.25;0.70;;;;;;;;;;5111059;28;20051;-75
2022/08/09 13:39:43;;;;;;;1.38;0.68;;;;;;;;;;5099381;28;20638;-74
2022/08/09 13:42:11;;;;;;;1.90;0.70;;;;;;;;;;5105601;28;20040;-73
2022/08/09 13:44:37;;;;;;;2.70;0.80;;;;;;;;;;5100620;28;20048;-74
2022/08/09 13:47:05;;;;;;;1.52;0.77;;;;;;;;;;5116448;28;20044;-75
2022/08/09 13:49:32;;;;;;;1.80;0.82;;;;;;;;;;5111828;28;20052;-74
2022/08/09 13:51:58;;;;;;;2.17;0.80;;;;;;;;;;5107588;28;20083;-75
2022/08/09 13:54:24;;;;;;;2.72;0.90;;;;;;;;;;5101607;28;20059;-74
2022/08/09 13:56:50;;;;;;;3.60;0.70;;;;;;;;;;5117935;28;20521;-75
2022/08/09 13:59:16;;;;;;;2.17;0.65;;;;;;;;;;5117075;28;20379;-74
2022/08/09 14:01:42;;;;;;;2.67;0.63;;;;;;;;;;5114776;28;20039;-72
2022/08/09 14:04:08;;;;;;;3.60;0.73;;;;;;;;;;5111317;28;20052;-72
2022/08/09 14:06:34;;;;;;;3.00;0.68;;;;;;;;;;5102331;28;20028;-73
2022/08/09 14:09:00;;;;;;;2.67;0.63;;;;;;;;;;5104727;28;20047;-75
2022/08/09 14:11:26;;;;;;;2.20;0.60;;;;;;;;;;5107072;28;20067;-72
2022/08/09 14:13:52;;;;;;;2.65;0.68;;;;;;;;;;5112883;28;20048;-74
2022/08/09 14:16:20;;;;;;;8.48;0.90;;;;;;;;;;5107060;28;20055;-74
2022/08/09 14:18:48;;;;;;;2.50;0.70;;;;;;;;;;5103774;28;20628;-75
2022/08/09 14:21:17;;;;;;;3.88;0.70;;;;;;;;;;5082899;28;20077;-75
2022/08/09 14:23:44;;;;;;;4.43;0.90;;;;;;;;;;5112360;27;20031;-74
2022/08/09 14:26:10;;;;;;;3.20;0.80;;;;;;;;;;5130119;28;20382;-74
2022/08/09 14:28:36;;;;;;;2.28;0.77;;;;;;;;;;5114991;27;20035;-73
2022/08/09 14:31:02;;;;;;;2.08;0.80;;;;;;;;;;5101957;28;20044;-74
2022/08/09 14:33:28;;;;;;;3.92;1.08;;;;;;;;;;5084972;28;20052;-75
2022/08/09 14:35:55;;;;;;;3.80;1.13;;;;;;;;;;5101208;28;20086;-75
2022/08/09 14:38:21;;;;;;;3.38;0.80;;;;;;;;;;5091605;28;20052;-74
2022/08/09 14:40:47;;;;;;;2.58;0.80;;;;;;;;;;5120771;28;20073;-74
2022/08/09 14:43:13;;;;;;;1.88;0.75;;;;;;;;;;5093715;28;20031;-75